Airfield :
LOGIN :

Register | Disclaimer

   EN    FR    IT 

 










Legend :    VFR   Marginal VFR   IFR   Intensive IFR   Very Intensive IFR
Visi :
Ceiling :
>= 8 km
>= 3000ft
5 to 8 km
1000 to 3000 ft
1500m to 5 km
500 to 1000 ft
800 to 1500m
200 to 500 ft
< 800m
< 200 ft
Symbols :   Thunderstorms  Fog  Heavy snow  Heavy precipitations  Wind > 20 kt
SIGMETs :     Misc.  Thunderstorms  Icing  Turbulence  Mountain Waves  Volcanic Ashes






- Airport Elevation : 13 ft
- IATA code : LYX


EGMD - Lydd

CURRENT METAR :
  • 301350Z 31004KT 9999 FEW010 08/07 Q1026

EXPIRED METARs :
  • 301320Z 28005KT 230V330 9999 FEW010 09/08 Q1025
  • 301250Z VRB03KT 9999 FEW010 SCT014 08/07 Q1026
  • 301220Z VRB02KT 9999 BKN009 08/07 Q1026
  • 301150Z VRB02KT 9999 BKN008 08/07 Q1025
  • 301120Z VRB03KT 9999 OVC008 08/07 Q1026
  • 301050Z VRB02KT 9999 OVC007 08/07 Q1026

TAF TAF EGMD
Valid from the 30 at 12:00 until the 30 at 21:00 UTC


301103Z 3012/3021 15002KT 9999 BKN008
BECMG 3012/3015 SCT015
TEMPO 3012/3018 8000
PROB30
TEMPO 3018/3021 4000 BR
ATIS : +44 1797 322 422



MET'MAP, your aeronautical weather chart ! - Copyright ORBIFLY December 2007 - Disclaimer

ORBIFLY MET'MAP TEAM :

Programming & Development : Alexandra Zaïnal
Original concept : Baudouin d'Aumeries
Technical & hardware support : Manuel Goepfert
Assistance : Marc-Olivier Méhu




SOURCES & CREDITS :

   NOAA